Time;durP1;ratioP1;P1;durP2;ratioP2;P2;SDS_P1;SDS_P2;PMS_P1;PMS_P2;Temp;Humidity;BMP_temperature;BMP_pressure;BME280_temperature;BME280_humidity;BME280_pressure;Samples;Min_cycle;Max_cycle;Signal;HPM_P1;HPM_P2
2023/06/19 00:02:18;;;;;;;9.40;7.97;;;;;;;;;;5075293;28;20215;-78
2023/06/19 00:04:44;;;;;;;9.45;8.60;;;;;;;;;;5058534;28;20176;-78
2023/06/19 00:07:10;;;;;;;9.63;8.48;;;;;;;;;;5075007;28;20201;-78
2023/06/19 00:09:36;;;;;;;9.35;8.55;;;;;;;;;;5071751;28;20187;-78
2023/06/19 00:12:04;;;;;;;12.07;9.02;;;;;;;;;;5053164;28;20176;-78
2023/06/19 00:14:30;;;;;;;10.10;8.80;;;;;;;;;;5058165;28;20183;-78
2023/06/19 00:16:56;;;;;;;9.25;8.18;;;;;;;;;;5062010;28;20192;-78
2023/06/19 00:19:22;;;;;;;9.70;8.70;;;;;;;;;;5054869;28;20188;-78
2023/06/19 00:21:48;;;;;;;12.43;8.10;;;;;;;;;;5061164;28;20215;-78
2023/06/19 00:24:14;;;;;;;9.20;8.40;;;;;;;;;;5063742;28;20281;-78
2023/06/19 00:26:41;;;;;;;9.52;8.63;;;;;;;;;;5048737;28;20187;-79
2023/06/19 00:29:07;;;;;;;9.40;8.50;;;;;;;;;;5040584;28;20191;-78
2023/06/19 00:31:37;;;;;;;9.27;8.38;;;;;;;;;;5038631;28;20184;-84
2023/06/19 00:34:03;;;;;;;8.73;7.93;;;;;;;;;;5061831;28;20218;-84
2023/06/19 00:36:29;;;;;;;9.38;8.07;;;;;;;;;;5046242;28;20237;-84
2023/06/19 00:38:56;;;;;;;11.43;8.73;;;;;;;;;;5055997;28;20183;-83
2023/06/19 00:41:22;;;;;;;8.77;7.88;;;;;;;;;;5073892;28;20207;-84
2023/06/19 00:43:48;;;;;;;10.63;8.30;;;;;;;;;;5054425;28;20234;-84
2023/06/19 00:46:14;;;;;;;8.95;8.10;;;;;;;;;;5063096;28;20184;-84
2023/06/19 00:48:40;;;;;;;8.43;7.63;;;;;;;;;;5049317;28;20188;-83
2023/06/19 00:51:06;;;;;;;8.27;7.47;;;;;;;;;;5072279;28;20194;-84
2023/06/19 00:53:34;;;;;;;8.02;7.32;;;;;;;;;;5056940;28;20226;-84
2023/06/19 00:56:00;;;;;;;7.70;7.00;;;;;;;;;;5062393;28;20180;-83
2023/06/19 00:58:27;;;;;;;8.82;7.50;;;;;;;;;;5073277;28;20222;-83
2023/06/19 01:00:53;;;;;;;8.63;7.50;;;;;;;;;;5063693;28;20226;-83
2023/06/19 01:03:19;;;;;;;8.88;7.50;;;;;;;;;;5052698;28;20183;-83
2023/06/19 01:05:47;;;;;;;8.43;7.53;;;;;;;;;;5072882;28;20178;-83
2023/06/19 01:08:37;;;;;;;9.60;7.28;;;;;;;;;;5067568;28;20179;-83
2023/06/19 01:11:03;;;;;;;7.80;7.10;;;;;;;;;;5035043;28;20195;-79
2023/06/19 01:13:39;;;;;;;7.53;6.88;;;;;;;;;;5069655;28;20190;-79
2023/06/19 01:16:05;;;;;;;8.07;7.18;;;;;;;;;;5090181;28;20201;-78
2023/06/19 01:18:34;;;;;;;8.13;7.00;;;;;;;;;;5062850;28;20310;-79
2023/06/19 01:21:16;;;;;;;9.77;6.82;;;;;;;;;;5037021;28;20208;-79
2023/06/19 01:23:43;;;;;;;8.13;7.05;;;;;;;;;;5057694;28;20219;-78
2023/06/19 01:26:10;;;;;;;8.73;6.57;;;;;;;;;;5053624;28;20176;-79
2023/06/19 01:28:39;;;;;;;7.85;6.72;;;;;;;;;;5053227;28;20174;-78
2023/06/19 01:31:09;;;;;;;10.48;6.80;;;;;;;;;;5090639;28;20171;-78
2023/06/19 01:33:37;;;;;;;8.40;6.93;;;;;;;;;;5090058;28;20176;-79
2023/06/19 01:36:03;;;;;;;7.93;6.28;;;;;;;;;;5074147;28;20184;-78
2023/06/19 01:38:30;;;;;;;7.03;6.32;;;;;;;;;;5053251;28;20168;-79
2023/06/19 01:40:57;;;;;;;6.93;6.05;;;;;;;;;;5054419;28;20362;-79
2023/06/19 01:43:24;;;;;;;7.25;6.05;;;;;;;;;;5090077;28;20168;-79
2023/06/19 01:45:50;;;;;;;6.75;5.88;;;;;;;;;;5090062;28;20237;-79
2023/06/19 01:48:16;;;;;;;6.68;6.07;;;;;;;;;;5073288;28;20186;-79
2023/06/19 01:50:46;;;;;;;6.40;5.80;;;;;;;;;;5073182;28;20183;-79
2023/06/19 01:53:12;;;;;;;7.45;6.18;;;;;;;;;;5073095;28;20241;-79
2023/06/19 01:55:38;;;;;;;5.95;5.43;;;;;;;;;;5036215;28;20180;-78
2023/06/19 01:58:04;;;;;;;7.55;5.65;;;;;;;;;;5036257;28;20318;-78
2023/06/19 02:00:32;;;;;;;6.70;5.70;;;;;;;;;;5042660;28;20310;-79
2023/06/19 02:02:58;;;;;;;6.55;5.95;;;;;;;;;;5036710;28;20175;-79
2023/06/19 02:05:24;;;;;;;6.00;5.50;;;;;;;;;;5052800;28;20183;-79
2023/06/19 02:07:50;;;;;;;7.50;5.93;;;;;;;;;;5068734;28;20236;-79
2023/06/19 02:10:16;;;;;;;7.07;5.90;;;;;;;;;;5063822;28;20179;-79
2023/06/19 02:12:42;;;;;;;5.82;5.20;;;;;;;;;;5063201;28;20207;-79
2023/06/19 02:15:08;;;;;;;8.02;5.50;;;;;;;;;;5054722;28;20222;-79
2023/06/19 02:17:34;;;;;;;7.38;5.50;;;;;;;;;;5044120;28;20198;-79
2023/06/19 02:20:00;;;;;;;6.38;5.40;;;;;;;;;;5054139;28;20183;-79
2023/06/19 02:22:26;;;;;;;5.80;5.10;;;;;;;;;;5042207;28;20280;-79
2023/06/19 02:24:53;;;;;;;6.10;5.10;;;;;;;;;;5052212;28;20203;-79
2023/06/19 02:27:19;;;;;;;9.98;5.43;;;;;;;;;;5042117;28;20184;-79
2023/06/19 02:29:45;;;;;;;6.10;5.50;;;;;;;;;;5068875;28;20183;-79
2023/06/19 02:32:12;;;;;;;8.68;5.38;;;;;;;;;;5049650;28;20271;-79
2023/06/19 02:34:38;;;;;;;6.47;5.50;;;;;;;;;;5052987;28;20245;-78
2023/06/19 02:37:04;;;;;;;10.70;5.53;;;;;;;;;;5062497;28;20267;-79
2023/06/19 02:39:30;;;;;;;6.70;5.15;;;;;;;;;;5036203;28;20247;-79
2023/06/19 02:41:56;;;;;;;5.77;5.17;;;;;;;;;;5035875;28;20298;-79
2023/06/19 02:44:22;;;;;;;6.05;4.70;;;;;;;;;;5054226;28;20200;-78
2023/06/19 02:46:48;;;;;;;6.68;4.72;;;;;;;;;;5052572;28;20176;-79
2023/06/19 02:49:14;;;;;;;5.83;4.90;;;;;;;;;;5071037;28;20201;-78
2023/06/19 02:51:40;;;;;;;6.53;4.70;;;;;;;;;;5064463;28;20188;-79
2023/06/19 02:54:06;;;;;;;4.80;4.20;;;;;;;;;;5064161;28;20274;-79
2023/06/19 02:56:32;;;;;;;6.55;4.57;;;;;;;;;;5066158;28;20171;-78
2023/06/19 02:58:58;;;;;;;5.93;4.37;;;;;;;;;;5079960;28;20236;-78
2023/06/19 03:01:24;;;;;;;7.47;4.20;;;;;;;;;;5063776;28;20222;-78
2023/06/19 03:03:52;;;;;;;5.43;3.80;;;;;;;;;;5066491;28;20169;-78
2023/06/19 03:06:18;;;;;;;4.93;3.90;;;;;;;;;;5063974;28;20234;-79
2023/06/19 03:08:44;;;;;;;5.33;3.80;;;;;;;;;;5081125;28;20202;-78
2023/06/19 03:11:11;;;;;;;4.90;3.47;;;;;;;;;;5082573;28;20175;-78
2023/06/19 03:13:46;;;;;;;4.43;4.03;;;;;;;;;;5058033;28;20214;-78
2023/06/19 03:16:12;;;;;;;4.10;3.70;;;;;;;;;;5052166;28;20194;-78
2023/06/19 03:18:38;;;;;;;4.17;3.73;;;;;;;;;;5052271;28;20191;-78
2023/06/19 03:21:04;;;;;;;5.23;3.93;;;;;;;;;;5053107;28;20203;-78
2023/06/19 03:23:30;;;;;;;5.40;3.83;;;;;;;;;;5052855;28;20236;-78
2023/06/19 03:25:57;;;;;;;4.00;3.60;;;;;;;;;;5082181;28;20183;-78
2023/06/19 03:28:23;;;;;;;4.00;3.50;;;;;;;;;;5076639;28;20199;-79
2023/06/19 03:30:50;;;;;;;5.30;3.83;;;;;;;;;;5075791;28;20176;-78
2023/06/19 03:33:16;;;;;;;4.20;3.80;;;;;;;;;;5074532;28;20179;-78
2023/06/19 03:35:42;;;;;;;4.40;4.00;;;;;;;;;;5055229;28;20204;-78
2023/06/19 03:38:08;;;;;;;5.67;3.83;;;;;;;;;;5066491;28;20183;-78
2023/06/19 03:40:34;;;;;;;5.23;3.90;;;;;;;;;;5054470;28;20214;-78
2023/06/19 03:43:00;;;;;;;3.87;3.53;;;;;;;;;;5050886;28;20180;-78
2023/06/19 03:45:26;;;;;;;4.80;3.53;;;;;;;;;;5072676;28;20176;-78
2023/06/19 03:47:52;;;;;;;3.93;3.53;;;;;;;;;;5049349;28;20176;-78
2023/06/19 03:50:18;;;;;;;4.47;3.60;;;;;;;;;;5074497;28;20190;-78
2023/06/19 03:52:44;;;;;;;3.80;3.50;;;;;;;;;;5058886;28;20186;-83
2023/06/19 03:55:10;;;;;;;3.60;3.30;;;;;;;;;;5054633;28;20192;-82
2023/06/19 03:57:36;;;;;;;4.17;3.77;;;;;;;;;;5064482;28;20228;-83
2023/06/19 04:00:07;;;;;;;3.60;3.30;;;;;;;;;;5055159;28;20208;-83
2023/06/19 04:02:33;;;;;;;4.47;3.70;;;;;;;;;;5055628;28;20208;-83
2023/06/19 04:04:59;;;;;;;4.07;3.70;;;;;;;;;;5075627;28;20179;-82
2023/06/19 04:07:25;;;;;;;4.43;3.70;;;;;;;;;;5057577;28;20191;-83
2023/06/19 04:09:51;;;;;;;3.60;3.30;;;;;;;;;;5075101;28;20265;-83
2023/06/19 04:12:17;;;;;;;3.73;3.43;;;;;;;;;;5053889;28;20194;-82
2023/06/19 04:14:43;;;;;;;5.20;3.77;;;;;;;;;;5065548;28;20194;-83
2023/06/19 04:17:09;;;;;;;4.67;3.77;;;;;;;;;;5038298;28;20180;-83
2023/06/19 04:19:35;;;;;;;3.83;3.53;;;;;;;;;;5054002;28;20190;-82
2023/06/19 04:22:01;;;;;;;5.43;3.63;;;;;;;;;;5073731;28;20222;-83
2023/06/19 04:24:27;;;;;;;6.20;3.90;;;;;;;;;;5074871;28;20235;-83
2023/06/19 04:26:53;;;;;;;4.93;3.70;;;;;;;;;;5058328;28;20195;-84
2023/06/19 04:29:19;;;;;;;4.40;3.60;;;;;;;;;;5075143;28;20189;-84
2023/06/19 04:31:48;;;;;;;4.30;3.53;;;;;;;;;;5058712;28;20191;-85
2023/06/19 04:34:21;;;;;;;4.97;3.47;;;;;;;;;;5074633;28;20187;-85
2023/06/19 04:36:47;;;;;;;4.43;3.80;;;;;;;;;;5075899;28;20182;-85
2023/06/19 04:39:15;;;;;;;4.57;3.80;;;;;;;;;;5075121;28;20210;-85
2023/06/19 04:41:41;;;;;;;4.95;4.30;;;;;;;;;;5073198;28;20441;-85
2023/06/19 04:44:08;;;;;;;5.40;4.40;;;;;;;;;;5058238;28;20179;-85
2023/06/19 04:46:34;;;;;;;4.90;4.20;;;;;;;;;;5074757;28;20172;-85
2023/06/19 04:49:03;;;;;;;4.47;3.83;;;;;;;;;;5058237;28;20304;-85
2023/06/19 04:51:29;;;;;;;4.80;4.30;;;;;;;;;;5058458;28;20179;-84
2023/06/19 04:53:55;;;;;;;5.50;4.97;;;;;;;;;;5074758;28;20186;-85
2023/06/19 04:56:22;;;;;;;6.87;4.90;;;;;;;;;;5058318;28;20213;-84
2023/06/19 04:58:48;;;;;;;4.73;4.23;;;;;;;;;;5056217;28;20251;-85
2023/06/19 05:01:15;;;;;;;5.60;4.20;;;;;;;;;;5057399;28;20326;-85
2023/06/19 05:03:41;;;;;;;8.43;5.27;;;;;;;;;;5057197;28;20286;-84
2023/06/19 05:06:08;;;;;;;5.17;4.70;;;;;;;;;;5074259;28;20186;-85
2023/06/19 05:08:34;;;;;;;5.07;4.53;;;;;;;;;;5055420;28;20190;-85
2023/06/19 05:11:00;;;;;;;5.37;4.60;;;;;;;;;;5073634;28;20175;-85
2023/06/19 05:13:26;;;;;;;8.37;5.07;;;;;;;;;;5073960;28;20191;-84
2023/06/19 05:15:52;;;;;;;5.47;4.97;;;;;;;;;;5053907;28;20191;-85
2023/06/19 05:18:18;;;;;;;6.83;5.40;;;;;;;;;;5053153;28;20191;-84
2023/06/19 05:20:44;;;;;;;6.27;5.43;;;;;;;;;;5064888;28;20191;-85
2023/06/19 05:23:11;;;;;;;6.27;5.67;;;;;;;;;;5073666;28;20238;-85
2023/06/19 05:25:37;;;;;;;6.17;5.57;;;;;;;;;;5085976;28;20179;-85
2023/06/19 05:28:03;;;;;;;7.87;5.63;;;;;;;;;;5051071;28;20321;-85
2023/06/19 05:30:29;;;;;;;6.40;5.80;;;;;;;;;;5055299;28;20190;-85
2023/06/19 05:32:56;;;;;;;8.43;6.10;;;;;;;;;;5052671;28;20289;-82
2023/06/19 05:35:22;;;;;;;7.47;5.97;;;;;;;;;;5066919;28;20216;-82
2023/06/19 05:37:48;;;;;;;8.30;6.40;;;;;;;;;;5064059;28;20212;-82
2023/06/19 05:40:14;;;;;;;8.67;6.30;;;;;;;;;;5064854;28;20192;-83
2023/06/19 05:42:40;;;;;;;11.80;6.63;;;;;;;;;;5055109;28;20298;-84
2023/06/19 05:45:07;;;;;;;7.83;6.77;;;;;;;;;;5066350;28;20191;-82
2023/06/19 05:47:33;;;;;;;8.70;6.97;;;;;;;;;;5057425;28;20179;-82
2023/06/19 05:50:00;;;;;;;8.93;6.87;;;;;;;;;;5068263;28;20233;-81
2023/06/19 05:52:26;;;;;;;10.23;7.33;;;;;;;;;;5070571;28;20191;-82
2023/06/19 05:54:53;;;;;;;9.03;6.93;;;;;;;;;;5060464;28;20265;-82
2023/06/19 05:57:22;;;;;;;7.80;7.10;;;;;;;;;;5061205;28;20277;-82
2023/06/19 05:59:49;;;;;;;7.97;7.17;;;;;;;;;;5060514;28;20188;-84
2023/06/19 06:02:15;;;;;;;8.47;7.03;;;;;;;;;;5043001;28;20272;-85
2023/06/19 06:04:42;;;;;;;8.60;7.77;;;;;;;;;;5073249;28;20313;-85
2023/06/19 06:07:08;;;;;;;9.40;7.60;;;;;;;;;;5070272;28;20175;-80
2023/06/19 06:09:34;;;;;;;9.80;8.00;;;;;;;;;;5062871;28;20239;-82
2023/06/19 06:12:00;;;;;;;11.70;9.07;;;;;;;;;;5054537;28;20184;-83
2023/06/19 06:14:26;;;;;;;9.40;7.35;;;;;;;;;;5057291;28;20499;-81
2023/06/19 06:16:52;;;;;;;11.00;7.77;;;;;;;;;;5074685;28;20182;-77
2023/06/19 06:19:24;;;;;;;8.80;7.90;;;;;;;;;;5055540;28;20191;-76
2023/06/19 06:21:50;;;;;;;11.67;10.17;;;;;;;;;;5065309;28;20202;-76
2023/06/19 06:24:17;;;;;;;19.57;17.40;;;;;;;;;;5052862;28;20231;-81
2023/06/19 06:26:43;;;;;;;15.00;13.60;;;;;;;;;;5055919;28;20214;-79
2023/06/19 06:29:09;;;;;;;14.77;13.23;;;;;;;;;;5066483;28;20179;-78
2023/06/19 06:31:35;;;;;;;12.73;10.27;;;;;;;;;;5051326;28;20199;-79
2023/06/19 06:34:01;;;;;;;12.97;10.13;;;;;;;;;;5051700;28;20183;-80
2023/06/19 06:36:27;;;;;;;15.80;10.57;;;;;;;;;;5051596;28;20219;-79
2023/06/19 06:38:53;;;;;;;10.23;9.23;;;;;;;;;;5055561;28;20222;-83
2023/06/19 06:41:19;;;;;;;11.37;9.77;;;;;;;;;;5055147;28;20215;-82
2023/06/19 06:43:46;;;;;;;13.57;11.60;;;;;;;;;;5055613;28;20186;-81
2023/06/19 06:46:12;;;;;;;10.33;9.13;;;;;;;;;;5055223;28;20183;-85
2023/06/19 06:48:38;;;;;;;10.27;8.90;;;;;;;;;;5051846;28;20278;-78
2023/06/19 06:51:04;;;;;;;9.03;8.27;;;;;;;;;;5055341;28;20224;-82
2023/06/19 06:53:31;;;;;;;10.40;9.27;;;;;;;;;;5055724;28;20191;-83
2023/06/19 06:55:59;;;;;;;10.17;9.10;;;;;;;;;;5056296;28;20183;-83
2023/06/19 06:58:25;;;;;;;10.90;9.30;;;;;;;;;;5054861;28;20187;-83
2023/06/19 07:00:51;;;;;;;10.23;9.43;;;;;;;;;;5055958;28;20292;-83
2023/06/19 07:03:18;;;;;;;10.60;9.03;;;;;;;;;;5092227;28;20183;-82
2023/06/19 07:05:44;;;;;;;10.57;9.50;;;;;;;;;;5072793;28;20195;-81
2023/06/19 07:08:10;;;;;;;10.67;9.70;;;;;;;;;;5058400;28;20176;-82
2023/06/19 07:10:36;;;;;;;11.00;9.93;;;;;;;;;;5076190;28;20175;-82
2023/06/19 07:13:02;;;;;;;35.20;32.03;;;;;;;;;;5056782;28;20180;-82
2023/06/19 07:15:28;;;;;;;13.47;10.13;;;;;;;;;;5068758;28;20179;-81
2023/06/19 07:17:54;;;;;;;11.10;10.13;;;;;;;;;;5059019;28;20186;-85
2023/06/19 07:20:23;;;;;;;13.73;10.30;;;;;;;;;;5075732;28;20182;-85
2023/06/19 07:22:51;;;;;;;10.30;9.40;;;;;;;;;;5074763;28;20322;-80
2023/06/19 07:25:17;;;;;;;12.40;11.10;;;;;;;;;;5075440;28;20183;-81
2023/06/19 07:27:43;;;;;;;11.00;10.00;;;;;;;;;;5075219;28;20202;-80
2023/06/19 07:30:10;;;;;;;10.60;9.60;;;;;;;;;;5059147;28;20270;-81
2023/06/19 07:32:37;;;;;;;12.63;10.17;;;;;;;;;;5066025;28;20191;-81
2023/06/19 07:35:03;;;;;;;9.83;8.93;;;;;;;;;;5075457;28;20179;-84
2023/06/19 07:37:29;;;;;;;8.90;7.73;;;;;;;;;;5055359;28;20298;-82
2023/06/19 07:39:55;;;;;;;8.10;7.40;;;;;;;;;;5054672;28;20285;-81
2023/06/19 07:42:22;;;;;;;8.57;7.30;;;;;;;;;;5056507;28;20211;-81
2023/06/19 07:44:48;;;;;;;8.63;7.33;;;;;;;;;;5055382;28;20222;-81
2023/06/19 07:47:16;;;;;;;8.07;7.37;;;;;;;;;;5048973;28;20223;-81
2023/06/19 07:49:42;;;;;;;8.73;7.77;;;;;;;;;;5057358;28;20310;-81
2023/06/19 07:52:11;;;;;;;9.87;8.87;;;;;;;;;;5055343;28;20277;-81
2023/06/19 07:54:37;;;;;;;10.57;9.57;;;;;;;;;;5055420;28;20183;-82
2023/06/19 07:57:03;;;;;;;9.47;8.30;;;;;;;;;;5060089;28;20250;-84
2023/06/19 07:59:29;;;;;;;14.70;9.63;;;;;;;;;;5043974;28;20286;-85
2023/06/19 08:01:55;;;;;;;10.50;9.07;;;;;;;;;;5075019;28;20219;-84
2023/06/19 08:04:21;;;;;;;9.90;8.83;;;;;;;;;;5075637;28;20233;-85
2023/06/19 08:06:47;;;;;;;9.90;7.60;;;;;;;;;;5075583;28;20176;-85
2023/06/19 08:09:13;;;;;;;9.10;8.20;;;;;;;;;;5054839;28;21344;-84
2023/06/19 08:11:39;;;;;;;11.48;10.48;;;;;;;;;;5071777;28;20180;-87
2023/06/19 08:14:05;;;;;;;20.88;18.95;;;;;;;;;;5062247;28;23247;-85
2023/06/19 08:16:31;;;;;;;13.88;12.68;;;;;;;;;;5058744;28;20190;-86
2023/06/19 08:18:57;;;;;;;14.45;12.93;;;;;;;;;;5057297;28;20240;-87
2023/06/19 08:21:24;;;;;;;16.83;15.23;;;;;;;;;;5038974;28;20211;-86
2023/06/19 08:23:50;;;;;;;16.80;15.07;;;;;;;;;;5058905;28;20227;-85
2023/06/19 08:26:17;;;;;;;15.35;13.30;;;;;;;;;;5071226;28;20321;-85
2023/06/19 08:28:44;;;;;;;12.07;10.88;;;;;;;;;;5062753;28;20180;-92
2023/06/19 08:31:10;;;;;;;11.50;10.40;;;;;;;;;;5058850;28;20192;-83
2023/06/19 08:33:36;;;;;;;10.73;9.73;;;;;;;;;;5074666;28;20200;-86
2023/06/19 08:36:03;;;;;;;11.40;9.30;;;;;;;;;;5054342;28;20200;-86
2023/06/19 08:38:29;;;;;;;11.02;9.57;;;;;;;;;;5070880;28;20313;-85
2023/06/19 08:40:55;;;;;;;10.40;9.07;;;;;;;;;;5055592;28;20282;-84
2023/06/19 08:43:21;;;;;;;11.35;10.23;;;;;;;;;;5057952;28;20179;-85
2023/06/19 08:46:08;;;;;;;10.38;9.35;;;;;;;;;;5069947;28;20198;-83
2023/06/19 08:48:37;;;;;;;12.05;10.38;;;;;;;;;;5074565;28;20171;-86
2023/06/19 08:51:04;;;;;;;11.07;9.90;;;;;;;;;;5074503;28;20171;-87
2023/06/19 08:53:32;;;;;;;12.02;9.98;;;;;;;;;;5073952;28;20179;-85
2023/06/19 08:55:58;;;;;;;12.82;10.30;;;;;;;;;;5072637;28;20191;-86
2023/06/19 08:58:24;;;;;;;16.45;14.65;;;;;;;;;;5057771;28;20277;-87
2023/06/19 09:00:50;;;;;;;23.13;20.73;;;;;;;;;;5073975;28;20278;-86
2023/06/19 09:03:23;;;;;;;14.82;12.52;;;;;;;;;;5045834;28;20180;-85
2023/06/19 09:05:50;;;;;;;13.45;12.15;;;;;;;;;;5068744;28;20182;-84
2023/06/19 09:08:17;;;;;;;12.80;11.48;;;;;;;;;;5056556;28;20183;-87
2023/06/19 09:10:43;;;;;;;12.32;11.05;;;;;;;;;;5073700;28;20178;-86
2023/06/19 09:13:09;;;;;;;13.70;12.27;;;;;;;;;;5074044;28;20167;-83
2023/06/19 09:15:36;;;;;;;14.30;12.00;;;;;;;;;;5056799;28;20195;-83
2023/06/19 09:18:02;;;;;;;14.27;12.50;;;;;;;;;;5073489;28;20217;-83
2023/06/19 09:20:29;;;;;;;12.88;11.75;;;;;;;;;;5073629;28;20172;-84
2023/06/19 09:22:55;;;;;;;11.18;10.07;;;;;;;;;;5055035;28;20229;-80
2023/06/19 09:25:26;;;;;;;12.65;10.90;;;;;;;;;;5036852;28;20214;-82
2023/06/19 09:27:56;;;;;;;12.57;11.18;;;;;;;;;;5066263;28;20192;-82
2023/06/19 09:30:22;;;;;;;14.60;12.13;;;;;;;;;;5077823;28;20179;-83
2023/06/19 09:32:48;;;;;;;12.50;11.02;;;;;;;;;;5073658;28;20182;-80
2023/06/19 09:35:14;;;;;;;12.32;11.00;;;;;;;;;;5073304;28;20187;-80
2023/06/19 09:37:41;;;;;;;14.75;11.45;;;;;;;;;;5056554;28;20176;-80
2023/06/19 09:40:10;;;;;;;23.05;10.63;;;;;;;;;;5071480;28;20183;-83
2023/06/19 09:42:40;;;;;;;12.10;10.65;;;;;;;;;;5052122;28;20207;-82
2023/06/19 09:45:08;;;;;;;14.93;13.40;;;;;;;;;;5049518;28;20184;-83
2023/06/19 09:47:38;;;;;;;15.85;13.10;;;;;;;;;;5068666;28;20176;-84
2023/06/19 09:50:06;;;;;;;15.48;13.98;;;;;;;;;;5073505;28;20175;-82
2023/06/19 09:52:32;;;;;;;15.45;13.40;;;;;;;;;;5057021;28;20186;-83
2023/06/19 09:54:58;;;;;;;15.07;11.18;;;;;;;;;;5072661;28;20210;-83
2023/06/19 09:57:24;;;;;;;16.23;13.07;;;;;;;;;;5073411;28;20179;-83
2023/06/19 09:59:52;;;;;;;13.38;10.85;;;;;;;;;;5073027;28;20183;-84
2023/06/19 10:02:20;;;;;;;18.45;12.45;;;;;;;;;;5067111;28;20192;-83
2023/06/19 10:04:49;;;;;;;13.65;12.38;;;;;;;;;;5061681;28;20179;-83
2023/06/19 10:07:16;;;;;;;14.43;12.65;;;;;;;;;;5053798;28;20182;-83
2023/06/19 10:09:42;;;;;;;17.15;15.48;;;;;;;;;;5058716;28;20269;-85
2023/06/19 10:12:14;;;;;;;17.48;15.05;;;;;;;;;;5061370;28;20184;-83
2023/06/19 10:14:48;;;;;;;15.02;13.40;;;;;;;;;;5045140;28;20187;-81
2023/06/19 10:17:17;;;;;;;19.05;13.43;;;;;;;;;;5052951;28;20245;-83
2023/06/19 10:19:50;;;;;;;15.95;13.20;;;;;;;;;;5054154;28;20210;-82
2023/06/19 10:22:21;;;;;;;13.27;11.02;;;;;;;;;;5063977;28;20207;-83
2023/06/19 10:24:51;;;;;;;16.38;12.65;;;;;;;;;;5068938;28;20251;-82
2023/06/19 10:27:23;;;;;;;12.70;11.50;;;;;;;;;;5057064;28;20175;-82
2023/06/19 10:29:57;;;;;;;13.98;11.95;;;;;;;;;;5068281;28;20274;-83
2023/06/19 10:32:23;;;;;;;22.77;18.60;;;;;;;;;;5060564;28;20191;-82
2023/06/19 10:34:49;;;;;;;15.57;14.18;;;;;;;;;;5072282;28;20270;-83
2023/06/19 10:37:16;;;;;;;13.77;12.38;;;;;;;;;;5050338;28;20274;-82
2023/06/19 10:39:43;;;;;;;13.50;12.30;;;;;;;;;;5071491;28;20183;-83
2023/06/19 10:42:10;;;;;;;12.57;11.32;;;;;;;;;;5070750;28;20214;-84
2023/06/19 10:44:37;;;;;;;14.35;12.88;;;;;;;;;;5052396;28;20211;-82
2023/06/19 10:47:04;;;;;;;14.55;13.18;;;;;;;;;;5052565;28;20222;-82
2023/06/19 10:49:30;;;;;;;14.05;12.85;;;;;;;;;;5070486;28;20171;-82
2023/06/19 10:51:59;;;;;;;16.50;15.00;;;;;;;;;;5052393;28;20180;-83
2023/06/19 10:54:25;;;;;;;15.07;13.30;;;;;;;;;;5069606;28;20183;-82
2023/06/19 10:56:51;;;;;;;14.15;12.75;;;;;;;;;;5072350;28;20171;-84
2023/06/19 10:59:20;;;;;;;15.18;13.63;;;;;;;;;;5052179;28;20246;-83
2023/06/19 11:01:47;;;;;;;16.13;14.63;;;;;;;;;;5062940;28;20234;-83
2023/06/19 11:04:14;;;;;;;17.05;15.35;;;;;;;;;;5066073;28;20183;-82
2023/06/19 11:06:41;;;;;;;16.58;15.00;;;;;;;;;;5071828;28;20178;-82
2023/06/19 11:09:08;;;;;;;16.60;15.23;;;;;;;;;;5071671;28;20199;-83
2023/06/19 11:11:41;;;;;;;18.45;15.00;;;;;;;;;;5072085;28;20179;-82
2023/06/19 11:14:08;;;;;;;17.73;13.52;;;;;;;;;;5071335;28;20179;-82
2023/06/19 11:16:34;;;;;;;20.13;16.15;;;;;;;;;;5071301;28;20214;-82
2023/06/19 11:19:01;;;;;;;18.05;16.13;;;;;;;;;;5055294;28;20276;-82
2023/06/19 11:21:32;;;;;;;15.63;14.23;;;;;;;;;;5070569;28;20242;-83
2023/06/19 11:23:59;;;;;;;18.23;16.63;;;;;;;;;;5051548;28;20299;-82
2023/06/19 11:26:25;;;;;;;17.67;16.08;;;;;;;;;;5062692;28;20176;-81
2023/06/19 11:28:51;;;;;;;17.60;16.00;;;;;;;;;;5052240;28;20180;-82
2023/06/19 11:31:18;;;;;;;21.90;16.88;;;;;;;;;;5052359;28;20259;-82
2023/06/19 11:33:44;;;;;;;15.88;14.32;;;;;;;;;;5047898;28;20188;-82
2023/06/19 11:36:10;;;;;;;17.70;15.85;;;;;;;;;;5055434;28;20188;-82
2023/06/19 11:38:36;;;;;;;17.45;16.00;;;;;;;;;;5053720;28;20195;-83
2023/06/19 11:41:02;;;;;;;17.30;15.52;;;;;;;;;;5035161;28;20217;-82
2023/06/19 11:43:29;;;;;;;16.42;14.75;;;;;;;;;;5035310;28;20176;-82
2023/06/19 11:46:08;;;;;;;16.15;14.65;;;;;;;;;;5054294;28;20180;-82
2023/06/19 11:48:37;;;;;;;16.05;14.52;;;;;;;;;;5064832;28;20176;-82
2023/06/19 11:51:03;;;;;;;15.10;13.60;;;;;;;;;;5071132;28;20180;-82
2023/06/19 11:53:29;;;;;;;15.45;13.85;;;;;;;;;;5055388;28;20254;-83
2023/06/19 11:55:56;;;;;;;14.55;12.98;;;;;;;;;;5054990;28;20246;-82
2023/06/19 11:58:22;;;;;;;16.75;14.32;;;;;;;;;;5060688;28;20179;-82
2023/06/19 12:00:48;;;;;;;12.45;11.25;;;;;;;;;;5056801;28;20204;-82
2023/06/19 12:03:15;;;;;;;14.05;12.75;;;;;;;;;;5078716;28;20247;-82
2023/06/19 12:05:41;;;;;;;13.80;12.40;;;;;;;;;;5071199;28;20245;-82
2023/06/19 12:08:07;;;;;;;14.48;13.07;;;;;;;;;;5054894;28;20195;-81
2023/06/19 12:10:34;;;;;;;14.65;13.15;;;;;;;;;;5058325;28;20232;-79
2023/06/19 12:13:00;;;;;;;14.35;13.15;;;;;;;;;;5066315;28;20184;-79
2023/06/19 12:15:26;;;;;;;13.13;11.82;;;;;;;;;;5055877;28;20176;-79
2023/06/19 12:17:52;;;;;;;13.20;11.95;;;;;;;;;;5071498;28;20266;-79
2023/06/19 12:20:19;;;;;;;12.38;11.27;;;;;;;;;;5090100;28;20178;-79
2023/06/19 12:22:45;;;;;;;15.18;12.02;;;;;;;;;;5064301;28;20232;-78
2023/06/19 12:25:11;;;;;;;14.02;11.32;;;;;;;;;;5065884;28;20263;-79
2023/06/19 12:27:41;;;;;;;12.55;10.98;;;;;;;;;;5057501;28;20199;-79
2023/06/19 12:30:07;;;;;;;10.88;9.80;;;;;;;;;;5075759;28;20242;-79
2023/06/19 12:32:34;;;;;;;11.88;8.38;;;;;;;;;;5058020;28;20175;-79
2023/06/19 12:35:00;;;;;;;9.82;8.90;;;;;;;;;;5056624;28;20183;-79
2023/06/19 12:37:26;;;;;;;10.18;9.18;;;;;;;;;;5056051;28;20194;-79
2023/06/19 12:39:52;;;;;;;10.00;8.98;;;;;;;;;;5054450;28;20190;-79
2023/06/19 12:42:18;;;;;;;11.65;10.55;;;;;;;;;;5048689;28;20206;-79
2023/06/19 12:44:44;;;;;;;11.27;9.07;;;;;;;;;;5078076;28;20365;-82
2023/06/19 12:47:11;;;;;;;11.70;10.25;;;;;;;;;;5052618;28;20180;-79
2023/06/19 12:49:37;;;;;;;11.30;8.93;;;;;;;;;;5064060;28;20188;-79
2023/06/19 12:52:03;;;;;;;11.60;10.50;;;;;;;;;;5067040;28;20242;-79
2023/06/19 12:54:29;;;;;;;9.75;8.90;;;;;;;;;;5053350;28;20184;-79
2023/06/19 12:56:55;;;;;;;10.25;8.77;;;;;;;;;;5053838;28;20188;-79
2023/06/19 12:59:21;;;;;;;12.25;11.05;;;;;;;;;;5065048;28;20207;-78
2023/06/19 13:01:47;;;;;;;11.73;10.55;;;;;;;;;;5037385;28;20287;-80
2023/06/19 13:04:13;;;;;;;10.75;9.75;;;;;;;;;;5066343;28;20422;-80
2023/06/19 13:06:40;;;;;;;10.57;9.60;;;;;;;;;;5073798;28;20179;-79
2023/06/19 13:09:07;;;;;;;11.20;9.27;;;;;;;;;;5073700;28;20262;-79
2023/06/19 13:11:36;;;;;;;9.48;8.57;;;;;;;;;;5072665;28;20191;-79
2023/06/19 13:14:02;;;;;;;12.32;9.52;;;;;;;;;;5073409;28;20221;-80
2023/06/19 13:16:28;;;;;;;10.50;8.57;;;;;;;;;;5056967;28;20175;-81
2023/06/19 13:18:54;;;;;;;10.32;9.35;;;;;;;;;;5073472;28;20180;-79
2023/06/19 13:21:20;;;;;;;11.63;8.20;;;;;;;;;;5052923;28;20216;-80
2023/06/19 13:23:48;;;;;;;10.13;8.02;;;;;;;;;;5050982;28;20227;-79
2023/06/19 13:26:14;;;;;;;10.45;9.35;;;;;;;;;;5037047;28;20180;-79
2023/06/19 13:28:40;;;;;;;9.77;8.40;;;;;;;;;;5066709;28;20276;-79
2023/06/19 13:31:06;;;;;;;9.07;8.15;;;;;;;;;;5056106;28;20210;-80
2023/06/19 13:33:32;;;;;;;8.63;7.78;;;;;;;;;;5056705;28;20270;-80
2023/06/19 13:35:58;;;;;;;10.18;8.95;;;;;;;;;;5073392;28;20175;-79
2023/06/19 13:38:24;;;;;;;11.18;9.82;;;;;;;;;;5073128;28;20197;-80
2023/06/19 13:40:50;;;;;;;10.45;9.07;;;;;;;;;;5055590;28;20183;-81
2023/06/19 13:43:17;;;;;;;9.02;8.10;;;;;;;;;;5053135;28;20225;-80
2023/06/19 13:45:43;;;;;;;9.93;8.90;;;;;;;;;;5053174;28;20209;-80
2023/06/19 13:48:09;;;;;;;11.50;8.50;;;;;;;;;;5068354;28;20223;-80
2023/06/19 13:50:35;;;;;;;8.85;7.95;;;;;;;;;;5063399;28;20180;-80
2023/06/19 13:53:01;;;;;;;9.45;7.32;;;;;;;;;;5056077;28;20229;-80
2023/06/19 13:55:28;;;;;;;9.23;7.95;;;;;;;;;;5056203;28;20237;-82
2023/06/19 13:57:54;;;;;;;8.57;7.75;;;;;;;;;;5073088;28;20183;-82
2023/06/19 14:00:20;;;;;;;8.43;7.63;;;;;;;;;;5071959;28;20201;-82
2023/06/19 14:02:49;;;;;;;8.30;7.50;;;;;;;;;;5056303;28;20215;-82
2023/06/19 14:05:16;;;;;;;8.30;7.57;;;;;;;;;;5072845;28;20199;-79
2023/06/19 14:07:42;;;;;;;9.45;8.43;;;;;;;;;;5072384;28;20175;-79
2023/06/19 14:10:09;;;;;;;10.77;8.75;;;;;;;;;;5071517;28;20186;-80
2023/06/19 14:12:35;;;;;;;8.80;8.00;;;;;;;;;;5073148;28;20242;-80
2023/06/19 14:15:01;;;;;;;10.15;7.82;;;;;;;;;;5072202;28;20187;-79
2023/06/19 14:17:27;;;;;;;8.43;7.40;;;;;;;;;;5068520;28;20190;-79
2023/06/19 14:19:55;;;;;;;8.30;7.50;;;;;;;;;;5057488;28;20210;-79
2023/06/19 14:22:21;;;;;;;11.77;8.55;;;;;;;;;;5066411;28;20218;-79
2023/06/19 14:24:47;;;;;;;8.38;7.20;;;;;;;;;;5062544;28;20219;-79
2023/06/19 14:27:14;;;;;;;9.70;8.48;;;;;;;;;;5066051;28;20167;-79
2023/06/19 14:29:40;;;;;;;9.43;8.52;;;;;;;;;;5054293;28;20207;-79